Terminal Aerodrome Forecast
Issued by NWS

Home | Current Version | Previous Version | Text Only | Print | Product List | Glossary On
Versions: 1 2 3 4 5 6 7 8 9 10 11 12 13 14 15 16 17 18 19
000
FTUS41 KBOX 230158 AAA
TAFBAF
TAF AMD
KBAF 230158Z 2302/2324 19013G18KT P6SM SCT025 BKN050
     FM230300 19012KT 4SM -TSRA BR BKN025CB
      TEMPO 2303/2305 VRB15G25KT 2SM +TSRA BKN015CB
     FM230500 20008KT P6SM VCSH BKN090
     FM230700 21006KT P6SM SCT060
     FM232300 VRB04KT P6SM FEW250=

USA.gov is the U.S. government's official web portal to all federal, state and local government web resources and services.